Time;durP1;ratioP1;P1;durP2;ratioP2;P2;SDS_P1;SDS_P2;PMS_P1;PMS_P2;Temp;Humidity;BMP_temperature;BMP_pressure;BME280_temperature;BME280_humidity;BME280_pressure;Samples;Min_cycle;Max_cycle;Signal;HPM_P1;HPM_P2
2022/01/08 00:00:32;;;;;;;2.30;1.50;;;18.50;52.30;;;;;;5099640;28;20190;-21
2022/01/08 00:02:58;;;;;;;4.63;1.80;;;18.50;52.30;;;;;;5099625;28;20203;-21
2022/01/08 00:05:27;;;;;;;3.97;1.40;;;18.50;52.10;;;;;;5100061;28;20190;-21
2022/01/08 00:07:54;;;;;;;2.67;1.43;;;18.50;52.20;;;;;;5082652;28;20189;-20
2022/01/08 00:10:20;;;;;;;4.07;1.70;;;18.50;52.20;;;;;;5081094;28;20315;-23
2022/01/08 00:12:45;;;;;;;3.80;1.70;;;18.50;52.20;;;;;;5098815;28;20268;-22
2022/01/08 00:15:11;;;;;;;2.60;1.37;;;18.50;52.20;;;;;;5098112;28;20225;-23
2022/01/08 00:17:37;;;;;;;2.83;1.40;;;18.50;52.20;;;;;;5079807;28;20171;-22
2022/01/08 00:20:05;;;;;;;3.70;1.50;;;18.40;52.30;;;;;;5099496;28;20176;-21
2022/01/08 00:22:30;;;;;;;4.23;1.40;;;18.40;52.30;;;;;;5100719;28;20185;-20
2022/01/08 00:24:57;;;;;;;3.27;1.37;;;18.40;52.30;;;;;;5082329;28;20177;-21
2022/01/08 00:27:23;;;;;;;3.27;1.50;;;18.30;52.40;;;;;;5079680;28;20623;-21
2022/01/08 00:29:49;;;;;;;2.97;1.50;;;18.30;52.40;;;;;;5079815;28;20181;-21
2022/01/08 00:32:16;;;;;;;2.77;1.50;;;18.30;52.50;;;;;;5080427;28;20192;-22
2022/01/08 00:34:43;;;;;;;3.17;1.43;;;18.30;52.50;;;;;;5099012;28;20203;-23
2022/01/08 00:37:09;;;;;;;2.90;1.40;;;18.30;52.50;;;;;;5082279;28;20269;-21
2022/01/08 00:39:36;;;;;;;2.57;1.27;;;18.30;52.60;;;;;;5099630;28;20269;-21
2022/01/08 00:42:02;;;;;;;3.50;1.63;;;18.20;53.00;;;;;;5099665;28;20165;-20
2022/01/08 00:44:30;;;;;;;2.97;1.40;;;18.20;52.60;;;;;;5098794;28;20190;-22
2022/01/08 00:46:56;;;;;;;4.77;1.53;;;18.20;52.70;;;;;;5082343;28;20255;-22
2022/01/08 00:49:24;;;;;;;2.50;1.47;;;18.20;52.80;;;;;;5099695;28;20177;-22
2022/01/08 00:51:49;;;;;;;2.60;1.40;;;18.10;52.80;;;;;;5081936;28;20186;-21
2022/01/08 00:54:15;;;;;;;3.47;1.67;;;18.10;52.90;;;;;;5080322;28;20183;-22
2022/01/08 00:56:41;;;;;;;1.83;1.27;;;18.10;53.00;;;;;;5080295;28;20178;-23
2022/01/08 00:59:06;;;;;;;3.57;1.40;;;18.00;53.00;;;;;;5097401;28;20221;-23
2022/01/08 01:01:32;;;;;;;2.70;1.33;;;18.00;53.10;;;;;;5098681;28;20191;-22
2022/01/08 01:03:58;;;;;;;2.30;1.40;;;18.00;53.10;;;;;;5079201;28;20466;-21
2022/01/08 01:06:24;;;;;;;4.77;1.47;;;18.00;53.10;;;;;;5098504;28;20173;-21
2022/01/08 01:08:50;;;;;;;2.97;1.60;;;18.00;53.10;;;;;;5081101;28;20182;-23
2022/01/08 01:11:16;;;;;;;2.80;1.27;;;18.00;53.20;;;;;;5080629;28;20176;-23
2022/01/08 01:13:42;;;;;;;3.40;1.77;;;17.90;53.20;;;;;;5078760;28;20174;-22
2022/01/08 01:16:07;;;;;;;1.63;1.23;;;17.90;53.30;;;;;;5079020;28;20210;-23
2022/01/08 01:18:34;;;;;;;2.43;1.43;;;17.90;53.30;;;;;;5085363;28;20437;-21
2022/01/08 01:21:01;;;;;;;3.33;1.53;;;17.90;53.30;;;;;;5099415;28;20249;-23
2022/01/08 01:23:37;;;;;;;4.03;1.50;;;17.90;53.40;;;;;;5080943;28;20221;-21
2022/01/08 01:26:06;;;;;;;2.43;1.40;;;17.80;53.30;;;;;;5098775;28;20268;-22
2022/01/08 01:28:45;;;;;;;2.20;1.37;;;17.80;53.50;;;;;;5099064;28;20175;-24
2022/01/08 01:47:10;;;;;;;2.07;1.20;;;17.80;53.40;;;;;;5095820;28;20200;-23
2022/01/08 01:49:41;;;;;;;3.07;1.57;;;17.80;53.30;;;;;;5096364;28;20597;-22
2022/01/08 01:52:09;;;;;;;1.60;1.10;;;17.80;53.30;;;;;;5095978;28;20173;-22
2022/01/08 01:54:36;;;;;;;2.47;1.50;;;17.90;53.20;;;;;;5097160;28;20203;-20
2022/01/08 01:57:04;;;;;;;1.87;1.30;;;17.90;53.20;;;;;;5097354;28;20162;-23
2022/01/08 01:59:32;;;;;;;1.87;1.27;;;17.90;53.60;;;;;;5079832;28;20217;-21
2022/01/08 02:01:58;;;;;;;1.67;1.30;;;17.90;53.20;;;;;;5097435;28;20185;-21
2022/01/08 02:04:24;;;;;;;2.90;1.30;;;17.80;53.10;;;;;;5095023;28;20181;-23
2022/01/08 02:06:50;;;;;;;2.37;1.30;;;17.80;53.10;;;;;;5096222;28;20181;-22
2022/01/08 02:09:17;;;;;;;2.10;1.20;;;17.90;53.20;;;;;;5098374;28;20180;-22
2022/01/08 02:11:58;;;;;;;2.27;1.40;;;17.80;53.10;;;;;;5097774;28;20174;-23
2022/01/08 02:14:24;;;;;;;2.20;1.40;;;17.80;53.40;;;;;;5097792;28;20208;-21
2022/01/08 02:16:50;;;;;;;2.27;1.33;;;17.90;53.10;;;;;;5080950;28;20168;-22
2022/01/08 02:19:16;;;;;;;2.50;1.30;;;17.90;53.00;;;;;;5078706;28;20243;-24
2022/01/08 02:21:54;;;;;;;2.07;1.40;;;17.90;52.90;;;;;;5078412;28;20279;-21
2022/01/08 02:24:21;;;;;;;1.83;1.20;;;17.90;52.80;;;;;;5079377;28;20565;-22
2022/01/08 02:26:47;;;;;;;1.50;1.40;;;17.90;52.80;;;;;;5079871;28;20175;-22
2022/01/08 02:29:16;;;;;;;1.80;1.40;;;17.90;52.80;;;;;;5097659;28;20671;-23
2022/01/08 02:31:55;;;;;;;2.50;1.37;;;17.90;52.80;;;;;;5097844;28;20186;-22
2022/01/08 02:34:21;;;;;;;1.87;1.30;;;17.90;52.80;;;;;;5095261;28;20204;-23
2022/01/08 02:36:47;;;;;;;1.80;1.17;;;17.90;52.80;;;;;;5077249;28;20175;-20
2022/01/08 02:39:15;;;;;;;2.27;1.27;;;17.80;52.80;;;;;;5096009;28;20173;-22
2022/01/08 02:41:40;;;;;;;3.17;1.47;;;17.80;52.80;;;;;;5095859;28;20258;-25
2022/01/08 02:44:07;;;;;;;3.17;1.40;;;17.80;52.80;;;;;;5078379;28;20332;-25
2022/01/08 02:46:33;;;;;;;2.80;1.13;;;17.80;52.90;;;;;;5096111;28;20221;-22
2022/01/08 02:48:59;;;;;;;1.83;1.27;;;17.80;52.90;;;;;;5078447;28;20188;-22
2022/01/08 02:51:24;;;;;;;1.37;1.20;;;17.80;52.90;;;;;;5096850;28;20539;-23
2022/01/08 02:53:51;;;;;;;1.93;1.30;;;17.80;52.90;;;;;;5098100;28;20182;-21
2022/01/08 02:56:17;;;;;;;2.63;1.20;;;17.70;53.00;;;;;;5096985;28;20481;-23
2022/01/08 02:58:43;;;;;;;2.47;1.50;;;17.70;53.10;;;;;;5096375;28;20442;-24
2022/01/08 03:01:09;;;;;;;1.53;1.37;;;17.60;53.10;;;;;;5078376;28;20581;-21
2022/01/08 03:03:35;;;;;;;2.03;1.30;;;17.60;53.30;;;;;;5096184;28;20174;-22
2022/01/08 03:06:01;;;;;;;2.80;1.20;;;17.50;53.30;;;;;;5095143;28;20242;-23
2022/01/08 03:08:27;;;;;;;2.03;1.30;;;17.50;53.40;;;;;;5096335;28;20186;-19
2022/01/08 03:10:54;;;;;;;2.93;1.40;;;17.50;53.50;;;;;;5100270;28;20187;-22
2022/01/08 03:13:20;;;;;;;1.87;1.40;;;17.50;53.60;;;;;;5082437;28;20200;-22
2022/01/08 03:15:45;;;;;;;1.50;1.20;;;17.40;53.60;;;;;;5101026;28;20217;-23
2022/01/08 03:18:11;;;;;;;2.03;1.30;;;17.40;53.70;;;;;;5101597;28;20180;-22
2022/01/08 03:20:48;;;;;;;2.17;1.40;;;17.40;53.80;;;;;;5083765;28;20692;-23
2022/01/08 03:23:21;;;;;;;2.33;1.30;;;17.30;53.80;;;;;;5101151;28;20263;-22
2022/01/08 03:25:47;;;;;;;2.07;1.40;;;17.30;53.90;;;;;;5101287;28;20179;-23
2022/01/08 03:28:13;;;;;;;1.37;1.07;;;17.20;53.90;;;;;;5083672;28;20171;-21
2022/01/08 03:30:39;;;;;;;2.60;1.17;;;17.20;54.00;;;;;;5101505;28;20169;-21
2022/01/08 03:33:06;;;;;;;2.47;1.30;;;17.20;54.10;;;;;;5101113;28;20175;-25
2022/01/08 03:35:33;;;;;;;2.40;1.40;;;17.10;54.20;;;;;;5101146;28;20206;-21
2022/01/08 03:37:59;;;;;;;2.33;1.40;;;17.20;54.30;;;;;;5101242;28;20619;-21
2022/01/08 03:40:24;;;;;;;1.70;1.20;;;17.10;54.30;;;;;;5083182;28;20274;-22
2022/01/08 03:42:51;;;;;;;1.90;1.37;;;17.10;54.40;;;;;;5099206;28;20181;-23
2022/01/08 03:45:17;;;;;;;1.87;1.40;;;17.00;54.50;;;;;;5080592;28;20283;-19
2022/01/08 03:50:14;;;;;;;1.93;1.20;;;16.90;54.70;;;;;;5100241;28;20282;-23
2022/01/08 03:52:40;;;;;;;1.40;1.30;;;16.90;54.70;;;;;;5099597;28;20184;-24
2022/01/08 03:55:06;;;;;;;2.30;1.50;;;17.00;54.70;;;;;;5098954;28;20213;-20
2022/01/08 03:57:32;;;;;;;1.60;1.30;;;17.20;54.40;;;;;;5099785;28;20165;-20
2022/01/08 03:59:58;;;;;;;1.40;1.13;;;17.20;54.00;;;;;;5100707;28;20155;-22
2022/01/08 04:02:24;;;;;;;1.50;1.17;;;17.30;53.70;;;;;;5100251;28;20176;-20
2022/01/08 04:04:50;;;;;;;1.73;1.30;;;17.30;53.50;;;;;;5100268;28;20716;-22
2022/01/08 04:07:15;;;;;;;3.17;1.30;;;17.30;53.90;;;;;;5100759;28;20269;-21
2022/01/08 04:09:41;;;;;;;1.27;1.17;;;17.30;53.40;;;;;;5100391;28;20174;-19
2022/01/08 04:12:08;;;;;;;1.80;1.33;;;17.30;53.50;;;;;;5082773;28;20220;-23
2022/01/08 04:14:51;;;;;;;2.03;1.40;;;17.30;53.40;;;;;;5082940;28;20208;-22
2022/01/08 04:17:17;;;;;;;2.13;1.40;;;17.30;53.50;;;;;;5082932;28;20173;-22
2022/01/08 04:19:44;;;;;;;1.50;1.13;;;17.30;53.50;;;;;;5099649;28;20529;-21
2022/01/08 04:22:12;;;;;;;1.57;1.27;;;17.30;53.50;;;;;;5100960;28;20182;-23
2022/01/08 04:24:39;;;;;;;1.47;1.03;;;17.20;53.50;;;;;;5081396;28;20171;-23
2022/01/08 04:27:05;;;;;;;1.37;1.20;;;17.20;53.50;;;;;;5098093;28;20447;-22
2022/01/08 04:29:31;;;;;;;2.50;1.43;;;17.20;53.60;;;;;;5098483;28;20715;-21
2022/01/08 04:31:57;;;;;;;1.83;1.30;;;17.20;53.70;;;;;;5100043;28;20167;-23
2022/01/08 04:34:23;;;;;;;1.97;1.27;;;17.10;53.60;;;;;;5082233;28;20175;-20
2022/01/08 04:36:48;;;;;;;1.90;1.40;;;17.10;53.70;;;;;;5100372;28;20185;-23
2022/01/08 04:39:14;;;;;;;3.53;1.20;;;17.10;53.80;;;;;;5082821;28;20171;-23
2022/01/08 04:41:41;;;;;;;1.87;1.23;;;17.00;53.80;;;;;;5099803;28;20155;-22
2022/01/08 04:44:07;;;;;;;2.77;1.10;;;17.00;53.90;;;;;;5099965;28;20188;-20
2022/01/08 04:46:33;;;;;;;2.70;1.30;;;17.00;54.00;;;;;;5081988;28;20580;-22
2022/01/08 04:48:59;;;;;;;2.47;1.30;;;17.00;54.10;;;;;;5099231;28;20179;-20
2022/01/08 04:51:24;;;;;;;2.03;1.30;;;16.90;54.10;;;;;;5099378;28;20175;-21
2022/01/08 04:53:50;;;;;;;1.50;1.30;;;16.90;54.20;;;;;;5099240;28;20275;-22
2022/01/08 04:56:16;;;;;;;1.47;1.27;;;16.90;54.20;;;;;;5098100;28;20249;-21
2022/01/08 04:58:42;;;;;;;1.73;1.20;;;16.80;54.30;;;;;;5080382;28;20174;-22
2022/01/08 05:01:16;;;;;;;2.13;1.20;;;16.80;54.40;;;;;;5080534;28;20178;-21
2022/01/08 05:03:42;;;;;;;2.20;1.60;;;16.70;54.40;;;;;;5097764;28;20581;-21
2022/01/08 05:06:08;;;;;;;3.20;1.60;;;16.70;54.50;;;;;;5098059;28;20175;-22
2022/01/08 05:08:33;;;;;;;1.73;1.30;;;16.70;54.60;;;;;;5079479;28;20175;-21
2022/01/08 05:10:59;;;;;;;1.70;1.40;;;16.60;54.70;;;;;;5079394;28;20179;-24
2022/01/08 05:13:25;;;;;;;1.60;1.50;;;16.60;54.80;;;;;;5096484;28;20187;-22
2022/01/08 05:15:51;;;;;;;2.17;1.60;;;16.50;54.90;;;;;;5097464;28;20202;-21
2022/01/08 05:18:16;;;;;;;2.23;1.60;;;16.50;55.10;;;;;;5097545;28;20183;-21
2022/01/08 05:20:51;;;;;;;1.53;1.37;;;16.40;55.30;;;;;;5097165;28;20175;-19
2022/01/08 05:23:17;;;;;;;2.07;1.40;;;16.40;55.40;;;;;;5095462;28;20183;-21
2022/01/08 05:25:43;;;;;;;2.20;1.40;;;16.30;55.50;;;;;;5080245;28;20179;-21
2022/01/08 05:28:09;;;;;;;1.70;1.40;;;16.30;55.60;;;;;;5079414;28;20607;-22
2022/01/08 05:30:34;;;;;;;2.07;1.30;;;16.30;55.70;;;;;;5079097;28;20187;-25
2022/01/08 05:33:00;;;;;;;2.00;1.50;;;16.20;55.80;;;;;;5080301;28;20190;-20
2022/01/08 05:35:27;;;;;;;2.03;1.60;;;16.20;55.80;;;;;;5080768;28;20220;-23
2022/01/08 05:37:53;;;;;;;2.60;1.50;;;16.20;56.00;;;;;;5097028;28;20185;-22
2022/01/08 05:40:20;;;;;;;1.50;1.33;;;18.80;52.00;;;;;;5079052;28;20455;-25
2022/01/08 05:42:46;;;;;;;1.73;1.40;;;19.80;48.50;;;;;;5079926;28;20186;-22
2022/01/08 05:45:12;;;;;;;1.33;1.23;;;20.10;47.50;;;;;;5096865;28;20211;-21
2022/01/08 05:47:39;;;;;;;2.00;1.50;;;20.30;46.90;;;;;;5097105;28;20230;-24
2022/01/08 05:50:06;;;;;;;2.97;1.60;;;20.60;46.50;;;;;;5095787;28;20463;-23
2022/01/08 05:52:32;;;;;;;1.63;1.53;;;20.80;46.10;;;;;;5078109;28;20286;-23
2022/01/08 05:54:58;;;;;;;2.00;1.40;;;21.20;45.60;;;;;;5097908;28;20281;-23
2022/01/08 05:57:24;;;;;;;2.60;1.80;;;21.60;45.10;;;;;;5096528;28;20185;-25
2022/01/08 05:59:49;;;;;;;2.13;1.60;;;21.90;44.70;;;;;;5097305;28;20174;-22
2022/01/08 06:02:15;;;;;;;2.30;1.80;;;22.30;44.30;;;;;;5080353;28;20595;-20
2022/01/08 06:04:41;;;;;;;2.20;1.63;;;22.60;43.90;;;;;;5080140;28;20200;-23
2022/01/08 06:07:07;;;;;;;2.47;1.67;;;22.80;43.50;;;;;;5098766;28;20429;-22
2022/01/08 06:09:33;;;;;;;2.10;1.70;;;22.80;43.40;;;;;;5097866;28;20178;-20
2022/01/08 06:11:59;;;;;;;2.00;1.67;;;23.00;43.30;;;;;;5080823;28;20604;-23
2022/01/08 06:14:27;;;;;;;2.17;1.67;;;23.20;43.00;;;;;;5097470;28;20183;-21
2022/01/08 06:16:52;;;;;;;2.57;1.57;;;23.60;42.70;;;;;;5080189;28;20170;-24
2022/01/08 06:19:18;;;;;;;1.83;1.67;;;23.60;42.40;;;;;;5078493;28;20181;-22
2022/01/08 06:21:44;;;;;;;1.63;1.40;;;23.60;42.50;;;;;;5096418;28;20170;-26
2022/01/08 06:24:10;;;;;;;1.70;1.60;;;23.50;42.40;;;;;;5097911;28;20509;-24
2022/01/08 06:26:36;;;;;;;2.10;1.70;;;23.70;42.40;;;;;;5080240;28;20175;-23
2022/01/08 06:29:02;;;;;;;2.50;1.70;;;23.90;42.10;;;;;;5079421;28;20197;-23
2022/01/08 06:31:28;;;;;;;1.73;1.53;;;24.20;41.90;;;;;;5079457;28;20174;-23
2022/01/08 06:33:54;;;;;;;2.23;1.70;;;24.20;41.80;;;;;;5079364;28;20174;-24
2022/01/08 06:36:23;;;;;;;2.00;1.80;;;24.10;42.20;;;;;;5080115;28;20727;-24
2022/01/08 06:38:49;;;;;;;1.90;1.60;;;23.90;41.90;;;;;;5080141;28;20167;-24
2022/01/08 06:41:16;;;;;;;1.60;1.50;;;23.60;42.10;;;;;;5079609;28;20182;-22
2022/01/08 06:43:42;;;;;;;1.70;1.60;;;23.30;42.40;;;;;;5079327;28;20510;-23
2022/01/08 06:46:08;;;;;;;2.00;1.57;;;23.10;42.70;;;;;;5095464;28;20620;-23
2022/01/08 06:48:34;;;;;;;2.37;1.70;;;22.70;43.00;;;;;;5095762;28;20189;-23
2022/01/08 06:51:00;;;;;;;2.57;1.77;;;22.50;43.30;;;;;;5078072;28;20179;-22
2022/01/08 06:53:25;;;;;;;2.17;1.90;;;22.10;43.60;;;;;;5097670;28;20209;-22
2022/01/08 06:55:51;;;;;;;2.43;1.63;;;21.80;44.00;;;;;;5097587;28;20610;-22
2022/01/08 06:58:19;;;;;;;2.77;1.90;;;21.60;44.30;;;;;;5098074;28;20167;-22
2022/01/08 07:00:44;;;;;;;2.63;1.80;;;21.30;44.60;;;;;;5079702;28;20194;-20
2022/01/08 07:03:11;;;;;;;3.10;1.60;;;21.00;44.90;;;;;;5080479;28;20177;-23
2022/01/08 07:05:37;;;;;;;2.80;1.53;;;20.90;45.30;;;;;;5097434;28;20308;-24
2022/01/08 07:08:03;;;;;;;2.13;1.70;;;20.60;45.50;;;;;;5097498;28;20264;-23
2022/01/08 07:10:29;;;;;;;2.53;1.70;;;20.40;45.90;;;;;;5097472;28;20182;-24
2022/01/08 07:12:55;;;;;;;2.10;1.70;;;20.10;46.10;;;;;;5096874;28;20200;-22
2022/01/08 07:15:20;;;;;;;2.27;1.90;;;20.00;46.40;;;;;;5096849;28;20199;-22
2022/01/08 07:17:47;;;;;;;1.97;1.63;;;20.10;46.40;;;;;;5097225;28;20634;-23
2022/01/08 07:20:13;;;;;;;1.70;1.60;;;20.50;46.20;;;;;;5078996;28;20263;-23
2022/01/08 07:22:40;;;;;;;2.30;1.87;;;21.30;45.50;;;;;;5096889;28;20164;-20
2022/01/08 07:25:06;;;;;;;1.83;1.60;;;22.80;44.00;;;;;;5096913;28;20163;-22
2022/01/08 07:27:33;;;;;;;3.13;1.60;;;24.00;42.50;;;;;;5097720;28;20177;-22
2022/01/08 07:30:03;;;;;;;2.90;1.73;;;24.10;41.90;;;;;;5096824;28;20187;-21
2022/01/08 07:32:29;;;;;;;2.37;1.70;;;23.80;42.00;;;;;;5079008;28;20173;-24
2022/01/08 07:34:54;;;;;;;2.40;1.57;;;23.40;42.30;;;;;;5079636;28;20281;-20
2022/01/08 07:37:21;;;;;;;1.93;1.50;;;23.20;42.60;;;;;;5096814;28;20170;-24
2022/01/08 07:39:46;;;;;;;2.60;1.53;;;23.20;42.60;;;;;;5093867;28;20189;-23
2022/01/08 07:42:12;;;;;;;2.10;1.50;;;23.50;42.40;;;;;;5092904;28;20169;-23
2022/01/08 07:44:39;;;;;;;2.07;1.80;;;23.60;42.20;;;;;;5092388;28;20374;-22
2022/01/08 07:47:06;;;;;;;2.70;1.70;;;23.80;42.10;;;;;;5092661;28;20567;-23
2022/01/08 07:49:32;;;;;;;2.13;1.70;;;23.70;42.00;;;;;;5073574;28;20186;-24
2022/01/08 07:51:58;;;;;;;2.47;1.60;;;23.60;42.10;;;;;;5092315;28;20167;-24
2022/01/08 07:54:24;;;;;;;1.80;1.40;;;23.40;42.20;;;;;;5093896;28;20197;-23
2022/01/08 07:56:50;;;;;;;1.80;1.40;;;23.30;42.40;;;;;;5095852;28;20552;-25
2022/01/08 07:59:16;;;;;;;1.73;1.50;;;23.00;42.60;;;;;;5096393;28;20178;-22
2022/01/08 08:01:42;;;;;;;2.13;1.50;;;22.80;42.80;;;;;;5095367;28;20239;-22
2022/01/08 08:04:07;;;;;;;2.70;1.70;;;22.60;43.00;;;;;;5077977;28;20562;-24
2022/01/08 08:06:36;;;;;;;2.20;1.67;;;22.40;43.20;;;;;;5095683;28;20678;-23
2022/01/08 08:09:03;;;;;;;2.00;1.80;;;22.20;43.50;;;;;;5077215;28;20174;-21
2022/01/08 08:11:28;;;;;;;1.93;1.50;;;22.00;43.70;;;;;;5079556;28;20175;-23
2022/01/08 08:13:54;;;;;;;2.03;1.67;;;21.80;43.90;;;;;;5099344;28;20167;-26
2022/01/08 08:16:20;;;;;;;2.13;1.60;;;21.60;44.10;;;;;;5099220;28;20212;-20
2022/01/08 08:18:46;;;;;;;2.03;1.60;;;21.40;44.50;;;;;;5096075;28;20166;-20
2022/01/08 08:21:12;;;;;;;3.43;1.53;;;21.20;44.90;;;;;;5078244;28;20181;-24
2022/01/08 08:23:38;;;;;;;5.10;1.90;;;21.00;45.30;;;;;;5095659;28;20179;-22
2022/01/08 08:26:03;;;;;;;2.43;1.53;;;20.80;45.60;;;;;;5094803;28;20187;-22
2022/01/08 08:28:30;;;;;;;3.80;1.80;;;20.70;45.90;;;;;;5096139;28;20272;-22
2022/01/08 08:30:56;;;;;;;2.20;1.60;;;20.80;46.10;;;;;;5094835;28;20173;-20
2022/01/08 08:33:21;;;;;;;3.83;1.90;;;21.10;46.00;;;;;;5094347;28;20549;-24
2022/01/08 08:35:47;;;;;;;3.50;2.00;;;21.60;45.60;;;;;;5077631;28;20532;-24
2022/01/08 08:38:13;;;;;;;3.20;2.00;;;22.20;45.10;;;;;;5077536;28;20175;-22
2022/01/08 08:40:40;;;;;;;5.37;1.90;;;22.90;44.40;;;;;;5094747;28;20174;-23
2022/01/08 08:43:06;;;;;;;7.10;2.37;;;23.70;43.50;;;;;;5094856;28;20273;-20
2022/01/08 08:45:32;;;;;;;10.67;2.73;;;24.10;42.90;;;;;;5094294;28;20262;-22
2022/01/08 08:47:58;;;;;;;4.73;2.40;;;24.40;42.50;;;;;;5095538;28;20567;-25
2022/01/08 08:50:24;;;;;;;9.57;2.27;;;24.30;42.50;;;;;;5094386;28;20173;-23
2022/01/08 08:52:52;;;;;;;5.50;2.27;;;24.30;42.50;;;;;;5093275;28;20583;-22
2022/01/08 08:55:18;;;;;;;6.93;2.20;;;24.20;42.60;;;;;;5076105;28;20321;-23
2022/01/08 08:57:44;;;;;;;7.93;2.33;;;24.10;42.60;;;;;;5093908;28;20522;-20
2022/01/08 09:00:11;;;;;;;7.17;2.43;;;24.10;42.50;;;;;;5093375;28;20222;-20
2022/01/08 09:02:37;;;;;;;9.40;2.50;;;24.00;42.50;;;;;;5093172;28;20171;-21
2022/01/08 09:05:04;;;;;;;4.10;2.33;;;23.90;42.80;;;;;;5092693;28;20168;-22
2022/01/08 09:07:30;;;;;;;6.77;2.73;;;23.70;42.90;;;;;;5076023;28;20163;-23
2022/01/08 09:09:56;;;;;;;4.97;2.50;;;23.50;43.00;;;;;;5074606;28;20272;-21
2022/01/08 09:12:22;;;;;;;8.23;2.70;;;23.40;43.20;;;;;;5074270;28;20174;-24
2022/01/08 09:14:48;;;;;;;12.23;2.50;;;23.30;43.30;;;;;;5093012;28;20214;-22
2022/01/08 09:17:14;;;;;;;8.40;2.60;;;23.10;43.50;;;;;;5074660;28;20237;-20
2022/01/08 09:19:42;;;;;;;7.23;2.20;;;22.90;43.70;;;;;;5092924;28;20230;-23
2022/01/08 09:22:08;;;;;;;5.73;2.40;;;22.70;43.90;;;;;;5075156;28;20167;-25
2022/01/08 09:24:36;;;;;;;6.20;2.20;;;22.50;44.10;;;;;;5092277;28;20426;-22
2022/01/08 09:27:03;;;;;;;7.17;2.77;;;22.40;44.30;;;;;;5075598;28;20167;-23
2022/01/08 09:29:28;;;;;;;5.30;2.70;;;22.10;44.50;;;;;;5093071;28;20178;-23
2022/01/08 09:31:54;;;;;;;5.00;2.43;;;22.00;44.80;;;;;;5092680;28;20174;-21
2022/01/08 09:34:20;;;;;;;5.70;2.63;;;21.80;45.00;;;;;;5092709;28;20166;-23
2022/01/08 09:36:46;;;;;;;5.33;2.53;;;21.60;45.20;;;;;;5075256;28;20337;-23
2022/01/08 09:39:13;;;;;;;3.97;2.03;;;21.50;45.50;;;;;;5075898;28;20522;-22
2022/01/08 09:41:39;;;;;;;4.33;2.00;;;21.40;45.60;;;;;;5075070;28;20182;-22
2022/01/08 09:44:05;;;;;;;8.20;2.07;;;21.50;45.60;;;;;;5092284;28;20172;-22
2022/01/08 09:46:31;;;;;;;5.20;2.37;;;21.60;45.50;;;;;;5092552;28;20218;-21
2022/01/08 09:48:59;;;;;;;4.13;2.10;;;21.90;45.20;;;;;;5075072;28;20221;-23
2022/01/08 09:51:26;;;;;;;8.50;2.47;;;22.40;44.80;;;;;;5091234;28;20163;-23
2022/01/08 09:53:54;;;;;;;5.00;2.40;;;22.80;44.20;;;;;;5091696;28;20178;-24
2022/01/08 09:56:20;;;;;;;4.93;2.33;;;23.00;43.80;;;;;;5074389;28;20595;-22
2022/01/08 09:58:46;;;;;;;6.50;2.30;;;23.30;43.50;;;;;;5091746;28;20171;-23
2022/01/08 10:01:26;;;;;;;5.77;2.10;;;23.60;43.00;;;;;;5073449;28;20176;-24
2022/01/08 10:03:52;;;;;;;5.37;2.20;;;24.00;42.70;;;;;;5092195;28;20169;-23
2022/01/08 10:06:23;;;;;;;4.93;2.00;;;24.10;42.50;;;;;;5091138;28;20167;-22
2022/01/08 10:08:49;;;;;;;5.10;2.13;;;24.20;42.30;;;;;;5072569;28;20171;-23
2022/01/08 10:11:15;;;;;;;4.30;2.73;;;24.40;42.20;;;;;;5091341;28;20185;-23
2022/01/08 10:13:42;;;;;;;2.97;2.17;;;24.30;42.40;;;;;;5071834;28;20571;-24
2022/01/08 10:19:01;;;;;;;4.30;2.17;;;24.10;42.10;;;;;;5090477;28;20246;-24
2022/01/08 10:21:34;;;;;;;3.77;2.27;;;23.90;42.20;;;;;;5071196;28;20237;-22
2022/01/08 10:24:04;;;;;;;4.93;2.47;;;23.80;42.40;;;;;;5090559;28;20251;-24
2022/01/08 10:26:34;;;;;;;4.23;2.33;;;23.50;42.50;;;;;;5090488;28;20182;-24
2022/01/08 10:29:10;;;;;;;3.57;2.17;;;23.40;42.60;;;;;;5072568;28;20276;-22
2022/01/08 10:31:51;;;;;;;4.87;2.30;;;23.20;42.80;;;;;;5074064;28;20174;-22
2022/01/08 10:34:21;;;;;;;4.80;2.20;;;23.00;43.10;;;;;;5085957;28;20202;-21
2022/01/08 10:37:00;;;;;;;6.33;3.00;;;22.80;43.30;;;;;;5090439;28;20211;-23
2022/01/08 10:39:35;;;;;;;3.80;2.17;;;22.50;43.50;;;;;;5090820;28;20186;-25
2022/01/08 10:42:21;;;;;;;6.00;2.30;;;22.30;43.90;;;;;;5090359;28;20169;-22
2022/01/08 10:44:50;;;;;;;5.23;2.40;;;21.90;44.30;;;;;;5071091;28;20181;-20
2022/01/08 10:47:21;;;;;;;4.83;2.33;;;21.60;44.60;;;;;;5090308;28;20186;-23
2022/01/08 10:50:07;;;;;;;5.47;2.33;;;21.30;45.00;;;;;;5089721;28;20184;-24
2022/01/08 10:52:44;;;;;;;6.03;2.30;;;20.90;45.30;;;;;;5088472;28;20569;-24
2022/01/08 10:55:10;;;;;;;5.57;2.20;;;20.70;46.10;;;;;;5089062;28;20255;-22
2022/01/08 10:57:37;;;;;;;8.27;2.60;;;20.80;45.70;;;;;;5089582;28;20188;-21
2022/01/08 11:00:11;;;;;;;5.73;2.40;;;21.10;45.50;;;;;;5089887;28;20206;-24
2022/01/08 11:02:41;;;;;;;10.17;2.93;;;21.90;45.00;;;;;;5090716;28;20263;-22
2022/01/08 11:05:09;;;;;;;6.20;2.73;;;22.70;44.20;;;;;;5090376;28;20206;-22
2022/01/08 11:07:36;;;;;;;4.57;2.37;;;23.40;43.40;;;;;;5089785;28;20173;-23
2022/01/08 11:10:08;;;;;;;5.53;2.50;;;23.90;42.70;;;;;;5071386;28;20204;-22
2022/01/08 11:12:38;;;;;;;4.70;2.20;;;24.20;42.20;;;;;;5070829;28;20215;-22
2022/01/08 11:17:48;;;;;;;5.73;3.13;;;23.90;42.20;;;;;;5090197;28;20166;-24
2022/01/08 11:20:25;;;;;;;4.77;2.73;;;24.00;42.20;;;;;;5089521;28;20171;-22
2022/01/08 11:22:53;;;;;;;4.57;2.90;;;23.90;42.10;;;;;;5088080;28;20178;-22
2022/01/08 11:25:21;;;;;;;5.50;2.53;;;23.70;42.20;;;;;;5071565;28;20308;-24
2022/01/08 11:27:56;;;;;;;5.60;2.60;;;23.60;42.40;;;;;;5072905;28;21085;-23
2022/01/08 11:30:43;;;;;;;5.60;2.40;;;23.40;42.50;;;;;;5094201;28;20591;-22
2022/01/08 11:33:16;;;;;;;6.53;2.93;;;23.40;42.60;;;;;;5072759;28;20233;-22
2022/01/08 11:35:43;;;;;;;4.23;2.60;;;23.40;42.60;;;;;;5091635;28;20580;-23
2022/01/08 11:38:12;;;;;;;4.70;2.70;;;23.20;42.70;;;;;;5092341;28;20289;-23
2022/01/08 11:40:41;;;;;;;4.47;2.53;;;23.10;42.90;;;;;;5075191;28;20469;-22
2022/01/08 11:43:09;;;;;;;4.03;2.37;;;22.90;43.10;;;;;;5073913;28;20449;-23
2022/01/08 11:45:38;;;;;;;5.57;2.40;;;22.70;43.40;;;;;;5073256;28;20374;-22
2022/01/08 11:48:08;;;;;;;4.43;2.30;;;22.40;43.50;;;;;;5074396;28;20219;-22
2022/01/08 11:50:34;;;;;;;4.20;2.50;;;22.20;43.90;;;;;;5092555;28;20201;-22
2022/01/08 11:53:22;;;;;;;4.23;2.07;;;22.00;44.00;;;;;;5091889;28;20263;-22
2022/01/08 11:55:53;;;;;;;4.20;2.70;;;21.80;44.40;;;;;;5092041;28;20202;-24
2022/01/08 11:58:23;;;;;;;3.10;2.40;;;21.50;44.60;;;;;;5093411;28;20174;-22
2022/01/08 12:01:01;;;;;;;3.90;2.20;;;21.30;44.90;;;;;;5092626;28;20171;-22
2022/01/08 12:03:39;;;;;;;4.73;2.50;;;21.10;45.00;;;;;;5074291;28;20265;-23
2022/01/08 12:06:25;;;;;;;3.83;2.70;;;20.90;45.30;;;;;;5073310;28;20272;-22
2022/01/08 12:09:16;;;;;;;4.63;2.37;;;20.80;45.60;;;;;;5073627;28;20214;-22
2022/01/08 12:11:47;;;;;;;4.47;2.47;;;21.00;45.30;;;;;;5092110;28;20167;-24
2022/01/08 12:14:13;;;;;;;3.87;2.03;;;21.20;45.10;;;;;;5072985;28;20186;-22
2022/01/08 12:16:40;;;;;;;4.37;2.50;;;21.70;44.80;;;;;;5091786;28;20206;-21
2022/01/08 12:19:09;;;;;;;3.13;2.33;;;22.20;44.20;;;;;;5091491;28;20184;-23
2022/01/08 12:21:42;;;;;;;4.00;2.30;;;22.60;43.70;;;;;;5073572;28;20556;-25
2022/01/08 12:24:26;;;;;;;3.23;2.10;;;23.40;42.90;;;;;;5091151;28;20257;-23
2022/01/08 12:26:57;;;;;;;5.20;2.00;;;23.90;42.20;;;;;;5073693;28;20332;-23
2022/01/08 12:29:40;;;;;;;4.07;2.17;;;24.10;42.00;;;;;;5066801;28;20461;-23
2022/01/08 12:32:34;;;;;;;3.47;1.70;;;24.00;41.80;;;;;;5090555;28;20171;-25
2022/01/08 12:35:41;;;;;;;4.47;2.07;;;24.00;41.70;;;;;;5072204;28;20213;-22
2022/01/08 12:38:26;;;;;;;5.23;1.77;;;23.90;41.70;;;;;;5088665;28;20166;-22
2022/01/08 12:40:52;;;;;;;4.27;2.03;;;24.00;41.90;;;;;;5090791;28;20163;-24
2022/01/08 12:43:35;;;;;;;8.93;2.60;;;23.90;42.10;;;;;;5091734;28;20181;-21
2022/01/08 12:46:17;;;;;;;5.00;2.27;;;23.70;42.20;;;;;;5073674;28;20171;-22
2022/01/08 12:49:08;;;;;;;4.00;2.27;;;23.50;42.50;;;;;;5091958;28;20194;-23
2022/01/08 12:51:49;;;;;;;3.87;2.17;;;23.10;42.90;;;;;;5074196;28;20210;-25
2022/01/08 12:54:17;;;;;;;5.27;2.10;;;22.80;43.10;;;;;;5091413;28;20614;-22
2022/01/08 12:56:58;;;;;;;6.63;2.37;;;22.60;43.30;;;;;;5073281;28;20271;-22
2022/01/08 12:59:32;;;;;;;4.40;2.30;;;22.30;43.60;;;;;;5073196;28;20182;-21
2022/01/08 13:01:58;;;;;;;5.63;2.10;;;21.80;44.00;;;;;;5092389;28;20179;-22
2022/01/08 13:04:24;;;;;;;4.33;1.77;;;21.60;44.20;;;;;;5073083;28;20163;-21
2022/01/08 13:06:50;;;;;;;4.40;2.10;;;21.30;44.40;;;;;;5073502;28;20306;-24
2022/01/08 13:09:17;;;;;;;5.37;2.37;;;21.00;44.70;;;;;;5074168;28;20174;-23
2022/01/08 13:11:44;;;;;;;4.63;1.97;;;20.80;45.00;;;;;;5072616;28;20178;-23
2022/01/08 13:14:18;;;;;;;3.83;1.80;;;20.80;45.30;;;;;;5073099;28;20267;-23